Time;durP1;ratioP1;P1;durP2;ratioP2;P2;SDS_P1;SDS_P2;PMS_P1;PMS_P2;Temp;Humidity;BMP_temperature;BMP_pressure;BME280_temperature;BME280_humidity;BME280_pressure;Samples;Min_cycle;Max_cycle;Signal;HPM_P1;HPM_P2
2022/09/11 00:00:35;;;;;;;2.28;0.95;;;;;;;17.50;75.94;100143.41;5128416;27;20154;-68
2022/09/11 00:03:00;;;;;;;0.93;0.82;;;;;;;17.36;76.53;100127.94;5130421;27;20525;-67
2022/09/11 00:05:26;;;;;;;1.80;0.95;;;;;;;17.31;76.43;100122.19;5129020;27;20027;-67
2022/09/11 00:07:52;;;;;;;1.00;0.88;;;;;;;17.37;76.57;100125.03;5130896;27;20101;-67
2022/09/11 00:10:17;;;;;;;4.00;1.00;;;;;;;17.42;76.85;100143.47;5130531;27;20126;-67
2022/09/11 00:12:43;;;;;;;1.48;0.70;;;;;;;17.26;76.97;100117.34;5128790;27;20047;-67
2022/09/11 00:15:09;;;;;;;1.23;0.85;;;;;;;17.34;77.24;100141.66;5130455;27;20031;-67
2022/09/11 00:17:35;;;;;;;1.17;0.70;;;;;;;17.36;77.18;100149.63;5129836;27;20027;-67
2022/09/11 00:20:01;;;;;;;3.22;0.80;;;;;;;17.29;77.66;100137.81;5129781;27;20029;-67
2022/09/11 00:22:26;;;;;;;1.83;0.82;;;;;;;17.24;77.97;100132.94;5130178;27;20023;-67
2022/09/11 00:24:52;;;;;;;3.17;0.98;;;;;;;17.19;78.05;100137.22;5130512;27;20102;-67
2022/09/11 00:27:18;;;;;;;2.13;0.93;;;;;;;17.12;78.42;100130.84;5130452;27;20027;-67
2022/09/11 00:29:43;;;;;;;1.95;0.90;;;;;;;17.08;78.65;100124.06;5130236;27;20023;-67
2022/09/11 00:32:09;;;;;;;2.55;0.60;;;;;;;17.03;78.47;100116.50;5130125;27;20058;-67
2022/09/11 00:34:35;;;;;;;1.50;0.60;;;;;;;17.07;78.62;100117.84;5129702;27;20019;-67
2022/09/11 00:37:00;;;;;;;1.58;0.80;;;;;;;17.10;78.86;100133.75;5130900;27;20033;-72
2022/09/11 00:39:26;;;;;;;0.88;0.75;;;;;;;17.10;79.10;100127.47;5130495;27;20023;-72
2022/09/11 00:41:51;;;;;;;3.60;1.27;;;;;;;17.10;79.00;100132.88;5130809;27;20084;-72
2022/09/11 00:44:17;;;;;;;1.00;0.90;;;;;;;17.05;79.22;100133.41;5129492;27;20031;-72
2022/09/11 00:46:48;;;;;;;3.90;0.93;;;;;;;17.13;78.71;100135.22;5130244;27;20126;-72
2022/09/11 00:49:23;;;;;;;2.92;1.15;;;;;;;17.15;78.31;100141.31;5129107;27;20428;-71
2022/09/11 00:51:54;;;;;;;2.38;0.57;;;;;;;17.11;78.48;100145.41;5130751;27;20030;-72
2022/09/11 00:54:25;;;;;;;1.42;0.80;;;;;;;16.99;78.77;100131.44;5130491;27;20019;-67
2022/09/11 00:56:53;;;;;;;1.10;0.93;;;;;;;16.93;79.04;100136.75;5130549;27;20400;-67
2022/09/11 00:59:25;;;;;;;2.22;0.98;;;;;;;16.82;80.00;100129.00;5129488;27;20033;-67
2022/09/11 01:01:51;;;;;;;0.90;0.77;;;;;;;16.83;80.18;100145.06;5127933;27;20035;-66
2022/09/11 01:04:19;;;;;;;1.08;0.80;;;;;;;16.79;80.36;100153.75;5129855;27;20034;-67
2022/09/11 01:06:45;;;;;;;2.15;0.80;;;;;;;16.74;80.56;100143.47;5129683;27;20076;-67
2022/09/11 01:09:12;;;;;;;2.42;0.77;;;;;;;16.73;81.04;100141.75;5129689;27;20031;-67
2022/09/11 01:11:57;;;;;;;1.38;0.70;;;;;;;16.73;79.93;100136.34;5127897;27;20039;-67
2022/09/11 01:14:35;;;;;;;2.45;0.80;;;;;;;16.72;80.32;100140.06;5115281;27;20107;-67
2022/09/11 01:17:20;;;;;;;1.67;0.70;;;;;;;16.67;80.17;100138.94;5108927;28;20065;-67
2022/09/11 01:20:07;;;;;;;1.10;0.80;;;;;;;16.63;80.27;100134.88;5108897;28;20122;-67
2022/09/11 01:22:57;;;;;;;0.68;0.52;;;;;;;16.68;79.85;100141.47;5108186;28;20710;-67
2022/09/11 01:25:41;;;;;;;2.03;0.85;;;;;;;16.61;79.91;100136.94;5108584;28;20054;-67
2022/09/11 01:28:14;;;;;;;1.02;0.90;;;;;;;16.47;80.34;100122.25;5108016;28;20024;-67
2022/09/11 01:30:47;;;;;;;2.38;0.70;;;;;;;16.49;80.42;100127.50;5119234;27;20043;-67
2022/09/11 01:33:34;;;;;;;3.85;0.82;;;;;;;16.50;80.35;100134.59;5111253;27;20125;-68
2022/09/11 01:36:06;;;;;;;0.93;0.60;;;;;;;16.44;79.59;100124.50;5107670;27;20102;-67
2022/09/11 01:38:49;;;;;;;2.45;0.52;;;;;;;16.48;79.35;100128.53;5110609;27;20041;-67
2022/09/11 01:41:20;;;;;;;0.82;0.60;;;;;;;16.27;79.92;100101.19;5098060;27;20038;-67
2022/09/11 01:44:05;;;;;;;2.40;0.70;;;;;;;16.37;80.14;100126.16;5111912;27;20432;-67
2022/09/11 01:46:36;;;;;;;1.63;0.70;;;;;;;16.31;80.25;100127.72;5109945;27;20031;-67
2022/09/11 01:49:07;;;;;;;3.20;0.70;;;;;;;16.24;80.46;100118.63;5108426;27;20024;-67
2022/09/11 01:51:35;;;;;;;0.73;0.55;;;;;;;16.28;80.08;100113.72;5110729;27;20027;-72
2022/09/11 01:54:03;;;;;;;0.40;0.40;;;;;;;16.33;79.66;100116.72;5112171;27;20063;-72
2022/09/11 01:56:37;;;;;;;1.33;0.55;;;;;;;16.28;80.35;100125.38;5106837;28;20116;-72
2022/09/11 01:59:08;;;;;;;0.75;0.50;;;;;;;16.18;80.40;100118.50;5108074;28;20034;-72
2022/09/11 02:01:37;;;;;;;1.85;0.52;;;;;;;16.22;80.86;100123.34;5107263;28;20035;-72
2022/09/11 02:04:26;;;;;;;0.68;0.68;;;;;;;16.17;81.16;100123.06;5106720;28;20382;-71
2022/09/11 02:07:09;;;;;;;0.77;0.70;;;;;;;16.15;81.39;100124.25;5108567;28;20038;-72
2022/09/11 02:09:45;;;;;;;1.03;0.60;;;;;;;16.13;81.33;100126.28;5108032;28;20040;-72
2022/09/11 02:12:15;;;;;;;2.47;0.60;;;;;;;16.09;81.69;100124.94;5107288;28;20367;-72
2022/09/11 02:14:45;;;;;;;1.45;0.55;;;;;;;16.10;81.53;100122.06;5093618;28;20038;-72
2022/09/11 02:17:23;;;;;;;0.93;0.55;;;;;;;16.06;81.76;100126.16;5107046;28;20474;-71
2022/09/11 02:19:50;;;;;;;1.17;0.70;;;;;;;16.16;80.76;100121.38;5108512;28;20035;-72
2022/09/11 02:22:15;;;;;;;0.98;0.70;;;;;;;16.21;80.62;100126.25;5126846;28;20106;-72
2022/09/11 02:24:41;;;;;;;1.48;0.70;;;;;;;16.10;81.05;100121.22;5128953;28;20114;-72
2022/09/11 02:27:11;;;;;;;1.02;0.60;;;;;;;16.05;81.30;100123.63;5128859;27;20027;-72
2022/09/11 02:29:38;;;;;;;0.90;0.50;;;;;;;15.99;81.63;100118.91;5128593;27;20026;-72
2022/09/11 02:32:04;;;;;;;0.63;0.60;;;;;;;15.89;82.51;100117.22;5127560;28;20127;-72
2022/09/11 02:34:35;;;;;;;1.48;0.80;;;;;;;15.91;82.61;100130.59;5128548;27;20425;-71
2022/09/11 02:37:22;;;;;;;1.10;0.57;;;;;;;15.88;82.81;100125.50;5127380;27;20393;-72
2022/09/11 02:40:03;;;;;;;1.48;0.63;;;;;;;15.83;83.29;100120.63;5126934;28;20031;-72
2022/09/11 02:42:34;;;;;;;0.65;0.30;;;;;;;15.80;83.02;100126.38;5128343;27;20031;-71
2022/09/11 02:45:46;;;;;;;1.23;0.50;;;;;;;15.78;83.08;100124.88;5128693;27;20019;-71
2022/09/11 02:48:21;;;;;;;1.13;0.50;;;;;;;15.86;82.58;100133.81;5083742;27;20537;-72
2022/09/11 02:51:09;;;;;;;;;;;;;;;15.90;81.96;100131.63;5114645;28;20713;-72
2022/09/11 02:53:48;;;;;;;0.75;0.30;;;;;;;15.92;81.11;100126.84;5099503;28;19919;-72
2022/09/11 02:56:30;;;;;;;1.17;0.68;;;;;;;16.06;80.58;100136.97;5128260;27;20037;-72
2022/09/11 02:59:03;;;;;;;0.50;0.40;;;;;;;16.07;80.67;100135.09;5128655;27;20061;-72
2022/09/11 03:01:28;;;;;;;2.05;0.40;;;;;;;16.00;80.77;100117.88;5128640;27;20593;-71
2022/09/11 03:03:54;;;;;;;2.92;0.57;;;;;;;15.95;81.01;100121.09;5128717;27;20031;-72
2022/09/11 03:06:21;;;;;;;0.68;0.30;;;;;;;15.91;80.78;100114.34;5128257;28;20023;-72
2022/09/11 03:08:47;;;;;;;4.68;0.47;;;;;;;15.95;80.90;100129.22;5128452;27;20116;-72
2022/09/11 03:11:16;;;;;;;1.63;0.40;;;;;;;15.83;81.09;100111.66;5128404;27;20027;-72
2022/09/11 03:13:43;;;;;;;2.42;0.50;;;;;;;15.81;81.73;100121.81;5130331;27;20060;-72
2022/09/11 03:16:09;;;;;;;1.02;0.52;;;;;;;15.75;82.46;100119.81;5119486;27;20443;-71
2022/09/11 03:18:35;;;;;;;0.60;0.30;;;;;;;15.67;82.79;100112.53;5104766;27;20039;-72
2022/09/11 03:21:00;;;;;;;1.38;0.50;;;;;;;15.68;83.10;100124.22;5130500;27;20131;-72
2022/09/11 03:23:26;;;;;;;2.25;0.47;;;;;;;15.57;83.39;100108.34;5131877;27;20039;-72
2022/09/11 03:25:53;;;;;;;0.60;0.40;;;;;;;15.50;83.86;100110.03;5130528;27;20023;-72
2022/09/11 03:28:19;;;;;;;0.40;0.40;;;;;;;15.60;83.20;100110.69;5130579;27;20031;-72
2022/09/11 03:30:44;;;;;;;1.58;0.30;;;;;;;15.59;83.36;100114.44;5130324;27;20034;-72
2022/09/11 03:33:10;;;;;;;1.05;0.55;;;;;;;15.57;83.84;100127.25;5130538;27;20652;-72
2022/09/11 03:35:36;;;;;;;0.52;0.50;;;;;;;15.55;83.96;100124.72;5131631;27;20026;-72
2022/09/11 03:38:01;;;;;;;2.72;0.60;;;;;;;15.50;83.91;100126.25;5130318;27;20507;-72
2022/09/11 03:40:27;;;;;;;3.00;0.55;;;;;;;15.50;84.64;100123.56;5131749;27;20075;-72
2022/09/11 03:42:52;;;;;;;0.43;0.40;;;;;;;15.49;84.90;100133.53;5131868;27;20080;-72
2022/09/11 03:45:18;;;;;;;1.70;0.38;;;;;;;15.52;84.55;100122.38;5131675;27;20058;-72
2022/09/11 03:47:44;;;;;;;1.50;0.63;;;;;;;15.52;84.84;100138.59;5130777;27;20394;-72
2022/09/11 03:50:10;;;;;;;1.27;0.68;;;;;;;15.52;84.89;100132.34;5122062;27;20023;-72
2022/09/11 03:52:37;;;;;;;1.02;0.50;;;;;;;15.43;84.90;100128.81;5131332;27;20035;-72
2022/09/11 03:55:06;;;;;;;0.75;0.45;;;;;;;15.49;84.77;100138.94;5131942;27;20042;-72
2022/09/11 03:57:35;;;;;;;1.77;0.68;;;;;;;15.46;84.85;100128.47;5130754;27;20031;-67
2022/09/11 04:00:01;;;;;;;3.45;0.88;;;;;;;15.47;84.49;100132.84;5131289;27;20031;-67
2022/09/11 04:02:27;;;;;;;1.13;0.50;;;;;;;15.47;84.46;100138.25;5130945;27;20045;-67
2022/09/11 04:04:52;;;;;;;2.33;0.47;;;;;;;15.50;84.37;100135.22;5131182;27;20501;-72
2022/09/11 04:07:18;;;;;;;1.02;0.55;;;;;;;15.51;84.20;100136.91;5131111;27;20402;-72
2022/09/11 04:09:45;;;;;;;0.73;0.40;;;;;;;15.50;84.34;100140.63;5127375;27;20471;-72
2022/09/11 04:12:11;;;;;;;3.53;0.60;;;;;;;15.48;84.56;100142.66;5117012;27;20141;-71
2022/09/11 04:14:37;;;;;;;1.05;0.57;;;;;;;15.39;85.17;100150.94;5129639;27;20038;-72
2022/09/11 04:17:03;;;;;;;1.55;0.40;;;;;;;15.31;85.71;100149.03;5131463;27;20609;-72
2022/09/11 04:19:28;;;;;;;2.25;0.60;;;;;;;15.27;86.00;100153.09;5130500;27;20055;-67
2022/09/11 04:21:54;;;;;;;0.93;0.77;;;;;;;15.11;86.32;100139.59;5130365;27;20136;-67
2022/09/11 04:24:19;;;;;;;1.25;0.50;;;;;;;15.19;86.61;100154.97;5128623;27;20076;-67
2022/09/11 04:26:45;;;;;;;1.08;0.52;;;;;;;15.06;86.84;100138.41;5128559;27;20030;-67
2022/09/11 04:29:10;;;;;;;2.30;0.60;;;;;;;15.15;87.44;100156.28;5130513;27;20019;-67
2022/09/11 04:31:37;;;;;;;1.95;0.82;;;;;;;15.13;88.05;100164.56;5119104;27;20523;-67
2022/09/11 04:34:03;;;;;;;1.77;0.80;;;;;;;14.91;88.24;100118.47;5108989;28;20027;-67
2022/09/11 04:36:28;;;;;;;1.45;0.60;;;;;;;15.12;88.68;100157.47;5108703;27;20135;-67
2022/09/11 04:38:56;;;;;;;0.70;0.50;;;;;;;15.13;88.42;100153.75;5110119;27;20170;-67
2022/09/11 04:41:22;;;;;;;1.38;0.60;;;;;;;15.18;87.72;100151.41;5109284;28;20459;-67
2022/09/11 04:43:48;;;;;;;0.90;0.63;;;;;;;15.32;87.41;100161.53;5107712;28;20040;-67
2022/09/11 04:46:16;;;;;;;0.85;0.57;;;;;;;15.24;87.58;100145.34;5109035;28;20015;-67
2022/09/11 04:48:46;;;;;;;1.50;0.63;;;;;;;15.32;87.03;100158.81;5107162;28;20348;-67
2022/09/11 04:51:24;;;;;;;1.73;0.50;;;;;;;15.39;86.62;100156.34;5109144;28;20072;-67
2022/09/11 04:53:51;;;;;;;1.88;0.60;;;;;;;15.39;86.62;100148.25;5107222;28;20477;-67
2022/09/11 04:56:19;;;;;;;1.30;0.50;;;;;;;15.31;87.09;100142.78;5109327;28;20042;-68
2022/09/11 04:58:51;;;;;;;1.08;0.70;;;;;;;15.30;87.43;100146.50;5108751;28;20026;-67
2022/09/11 05:01:16;;;;;;;1.15;0.77;;;;;;;15.24;87.45;100139.94;5108850;28;20751;-67
2022/09/11 05:03:45;;;;;;;1.38;0.80;;;;;;;15.24;87.45;100131.81;5107271;28;20039;-67
2022/09/11 05:06:15;;;;;;;1.10;1.00;;;;;;;15.36;86.93;100121.53;5107108;28;20077;-67
2022/09/11 05:08:43;;;;;;;2.80;0.95;;;;;;;15.35;87.51;100125.25;5108753;28;20051;-67
2022/09/11 05:11:13;;;;;;;1.05;0.80;;;;;;;15.40;87.29;100128.28;5109094;28;20116;-67
2022/09/11 05:13:40;;;;;;;2.78;0.80;;;;;;;15.51;87.13;100133.38;5105760;28;20491;-67
2022/09/11 05:16:11;;;;;;;3.47;1.10;;;;;;;15.50;87.00;100124.41;5108173;28;20023;-67
2022/09/11 05:18:38;;;;;;;2.88;1.02;;;;;;;15.61;87.10;100140.25;5108705;28;20040;-67
2022/09/11 05:21:07;;;;;;;2.05;1.10;;;;;;;15.63;87.17;100134.69;5108978;28;20035;-67
2022/09/11 05:23:33;;;;;;;1.40;1.00;;;;;;;15.57;87.01;100127.25;5108949;28;20023;-67
2022/09/11 05:26:00;;;;;;;3.75;1.20;;;;;;;15.67;87.12;100131.47;5108775;28;20107;-67
2022/09/11 05:28:26;;;;;;;2.55;1.10;;;;;;;15.51;87.49;100104.47;5108419;28;20020;-67
2022/09/11 05:30:56;;;;;;;1.67;1.00;;;;;;;15.79;86.65;100135.50;5108685;28;20152;-67
2022/09/11 05:33:22;;;;;;;2.03;1.48;;;;;;;15.85;86.75;100142.94;5108775;28;20051;-67
2022/09/11 05:35:52;;;;;;;2.25;1.55;;;;;;;15.88;86.18;100129.06;5107920;28;20194;-67
2022/09/11 05:38:19;;;;;;;4.55;1.90;;;;;;;16.01;85.54;100149.31;5108791;28;20112;-67
2022/09/11 05:40:50;;;;;;;3.63;1.55;;;;;;;16.15;84.40;100145.91;5122930;27;20031;-67
2022/09/11 05:43:16;;;;;;;3.28;1.50;;;;;;;16.26;83.53;100148.22;5127084;27;20038;-67
2022/09/11 05:45:44;;;;;;;4.63;1.92;;;;;;;16.30;83.22;100142.28;5128879;27;20126;-67
2022/09/11 05:48:10;;;;;;;3.67;1.92;;;;;;;16.31;83.72;100141.25;5128843;27;20031;-67
2022/09/11 05:50:37;;;;;;;3.63;2.10;;;;;;;16.42;83.41;100137.31;5128690;27;20111;-67
2022/09/11 05:53:04;;;;;;;3.40;1.90;;;;;;;16.61;82.54;100145.88;5129643;27;20230;-71
2022/09/11 05:55:34;;;;;;;3.35;1.80;;;;;;;16.85;81.46;100147.59;5129234;27;20075;-71
2022/09/11 05:58:01;;;;;;;4.07;1.70;;;;;;;17.14;79.57;100139.63;5129677;27;20496;-72
2022/09/11 06:00:27;;;;;;;2.33;1.73;;;;;;;17.18;78.43;100124.69;5129193;27;20050;-72
2022/09/11 06:02:53;;;;;;;10.43;1.88;;;;;;;17.27;78.37;100139.84;5129082;27;20054;-72
2022/09/11 06:05:19;;;;;;;1.50;1.35;;;;;;;17.37;78.01;100135.88;5124801;27;20023;-72
2022/09/11 06:07:45;;;;;;;2.33;1.45;;;;;;;17.49;77.02;100133.59;5106624;28;20057;-72
2022/09/11 06:10:11;;;;;;;3.22;1.77;;;;;;;17.45;78.22;100124.97;5108158;28;20027;-72
2022/09/11 06:12:36;;;;;;;3.70;1.25;;;;;;;17.56;77.22;100121.00;5108041;28;20047;-73
2022/09/11 06:15:02;;;;;;;3.72;1.92;;;;;;;17.67;75.66;100117.84;5107606;28;20027;-72
2022/09/11 06:17:27;;;;;;;9.02;1.42;;;;;;;17.73;75.42;100122.50;5109170;28;20115;-67
2022/09/11 06:19:53;;;;;;;1.80;1.20;;;;;;;17.61;76.43;100102.31;5109712;28;20031;-67
2022/09/11 06:22:20;;;;;;;2.63;1.40;;;;;;;17.91;75.78;100123.00;5103241;28;20024;-67
2022/09/11 06:24:48;;;;;;;2.42;1.20;;;;;;;18.07;74.10;100114.69;5105809;28;20455;-67
2022/09/11 06:27:14;;;;;;;4.45;1.75;;;;;;;18.14;74.03;100104.75;5107367;28;20027;-67
2022/09/11 06:29:40;;;;;;;3.53;2.25;;;;;;;18.38;72.97;100125.38;5107006;28;20019;-67
2022/09/11 06:32:05;;;;;;;2.63;1.10;;;;;;;18.33;73.01;100109.63;5107498;28;20055;-67
2022/09/11 06:34:31;;;;;;;1.98;1.08;;;;;;;18.37;72.91;100102.78;5107410;28;20034;-67
2022/09/11 06:36:57;;;;;;;1.95;0.88;;;;;;;18.52;72.22;100097.34;5106031;28;20031;-67
2022/09/11 06:39:22;;;;;;;2.03;1.10;;;;;;;18.85;70.53;100098.53;5102678;28;20071;-67
2022/09/11 06:41:49;;;;;;;2.78;1.20;;;;;;;19.08;69.97;100119.09;5096955;28;20031;-67
2022/09/11 06:44:14;;;;;;;1.83;1.08;;;;;;;19.13;70.27;100113.06;5104247;28;20040;-67
2022/09/11 06:46:41;;;;;;;1.67;0.95;;;;;;;19.49;68.03;100109.25;5106196;28;20375;-67
2022/09/11 06:49:06;;;;;;;1.55;1.05;;;;;;;19.58;67.10;100107.22;5110672;28;20523;-66
2022/09/11 06:51:32;;;;;;;1.80;0.80;;;;;;;19.91;65.67;100100.97;5110261;27;20051;-67
2022/09/11 06:54:00;;;;;;;3.55;0.70;;;;;;;19.97;65.88;100108.34;5108996;28;20055;-67
2022/09/11 06:56:27;;;;;;;2.13;0.73;;;;;;;20.07;66.37;100100.66;5109112;28;20023;-67
2022/09/11 06:58:52;;;;;;;3.70;0.75;;;;;;;20.31;65.42;100091.16;5110388;28;20034;-67
2022/09/11 07:01:20;;;;;;;2.85;1.05;;;;;;;20.57;64.05;100102.16;5114543;27;20051;-67
2022/09/11 07:03:48;;;;;;;1.15;0.65;;;;;;;20.86;62.35;100088.22;5130720;27;20502;-67
2022/09/11 07:06:18;;;;;;;0.93;0.50;;;;;;;21.20;60.75;100095.44;5112925;27;20047;-67
2022/09/11 07:08:51;;;;;;;0.63;0.50;;;;;;;21.38;59.56;100091.03;5108835;28;20058;-68
2022/09/11 07:11:17;;;;;;;0.75;0.50;;;;;;;21.37;60.20;100096.69;5108542;28;20039;-68
2022/09/11 07:13:43;;;;;;;3.00;0.60;;;;;;;21.54;59.79;100108.91;5109576;28;20027;-67
2022/09/11 07:16:11;;;;;;;3.63;0.60;;;;;;;21.76;58.33;100105.75;5108757;28;20138;-68
2022/09/11 07:18:42;;;;;;;1.10;0.50;;;;;;;21.82;58.23;100104.06;5109813;27;20082;-67
2022/09/11 07:21:13;;;;;;;1.88;0.60;;;;;;;21.80;58.21;100117.13;5089937;28;20039;-71
2022/09/11 07:23:39;;;;;;;2.42;0.70;;;;;;;22.01;57.38;100105.94;5090196;28;20081;-71
2022/09/11 07:26:09;;;;;;;0.88;0.50;;;;;;;22.09;57.04;100098.34;5088844;28;20039;-71
2022/09/11 07:28:36;;;;;;;0.95;0.50;;;;;;;22.31;56.74;100104.38;5090652;28;20020;-70
2022/09/11 07:31:13;;;;;;;1.38;0.50;;;;;;;22.45;56.30;100096.97;5095099;27;20125;-71
2022/09/11 07:33:44;;;;;;;1.20;0.70;;;;;;;22.59;55.36;100076.75;5127034;27;20031;-71
2022/09/11 07:36:13;;;;;;;3.90;0.70;;;;;;;22.70;55.72;100092.47;5130571;27;20393;-71
2022/09/11 07:38:40;;;;;;;2.25;0.57;;;;;;;22.91;54.60;100084.78;5130742;27;20066;-71
2022/09/11 07:41:07;;;;;;;3.15;0.60;;;;;;;22.98;54.05;100084.72;5129564;27;20035;-71
2022/09/11 07:43:34;;;;;;;1.60;0.60;;;;;;;23.01;54.10;100078.81;5128909;27;20091;-72
2022/09/11 07:46:00;;;;;;;4.50;1.00;;;;;;;23.11;54.75;100085.50;5130862;27;20471;-71
2022/09/11 07:48:25;;;;;;;2.95;0.60;;;;;;;23.36;53.39;100089.13;5130650;27;20030;-71
2022/09/11 07:51:01;;;;;;;1.73;0.55;;;;;;;23.70;52.17;100080.41;5112418;27;20032;-71
2022/09/11 07:53:27;;;;;;;1.38;0.80;;;;;;;24.24;50.76;100087.88;5110270;28;20646;-71
2022/09/11 07:55:54;;;;;;;1.90;0.50;;;;;;;24.52;50.24;100081.84;5113995;27;20027;-71
2022/09/11 07:58:20;;;;;;;1.90;0.65;;;;;;;25.50;47.41;100078.56;5109096;27;20047;-71
2022/09/11 08:00:45;;;;;;;1.50;0.50;;;;;;;26.50;44.57;100094.66;5109926;28;20053;-71
2022/09/11 08:03:11;;;;;;;2.17;0.52;;;;;;;26.79;44.66;100090.88;5109681;27;20063;-71
2022/09/11 08:05:36;;;;;;;0.60;0.50;;;;;;;27.66;42.69;100062.75;5107853;28;20016;-71
2022/09/11 08:08:02;;;;;;;1.92;0.55;;;;;;;29.20;39.63;100065.09;5109356;28;20040;-72
2022/09/11 08:10:28;;;;;;;2.90;0.70;;;;;;;30.45;37.12;100070.75;5108322;28;20076;-71
2022/09/11 08:12:53;;;;;;;1.55;0.77;;;;;;;31.31;35.75;100069.13;5108845;27;20073;-71
2022/09/11 08:15:20;;;;;;;3.35;0.60;;;;;;;31.99;33.50;100083.28;5108661;28;20613;-72
2022/09/11 08:17:46;;;;;;;2.83;0.60;;;;;;;31.86;33.97;100083.84;5101356;27;20063;-71
2022/09/11 08:20:12;;;;;;;4.65;0.80;;;;;;;32.39;33.39;100079.59;5109040;28;20110;-71
2022/09/11 08:22:38;;;;;;;4.78;0.50;;;;;;;33.49;31.08;100081.00;5108989;28;20138;-71
2022/09/11 08:25:04;;;;;;;4.78;0.77;;;;;;;33.79;30.70;100080.72;5109477;28;20071;-72
2022/09/11 08:27:29;;;;;;;4.68;0.80;;;;;;;34.06;30.27;100086.59;5109758;27;20081;-71
2022/09/11 08:29:55;;;;;;;1.75;0.70;;;;;;;34.25;30.23;100080.00;5115402;27;20035;-67
2022/09/11 08:32:20;;;;;;;4.00;0.85;;;;;;;33.98;30.27;100071.38;5095910;28;20391;-68
2022/09/11 08:34:46;;;;;;;2.25;0.75;;;;;;;34.62;29.83;100084.06;5094223;28;20130;-68
2022/09/11 08:37:12;;;;;;;5.10;0.80;;;;;;;35.73;27.95;100079.38;5089714;28;20140;-68
2022/09/11 08:39:38;;;;;;;2.55;0.57;;;;;;;35.67;27.64;100074.16;5098550;28;20081;-68
2022/09/11 08:42:15;;;;;;;2.45;0.50;;;;;;;35.95;27.79;100099.09;5107391;27;20036;-68
2022/09/11 08:44:51;;;;;;;2.45;0.60;;;;;;;36.68;26.22;100096.28;5094671;27;20429;-71
2022/09/11 08:47:25;;;;;;;0.93;0.38;;;;;;;36.94;26.26;100099.44;5095316;28;20085;-71
2022/09/11 08:49:59;;;;;;;1.65;0.45;;;;;;;35.99;27.24;100096.53;5107602;28;20023;-71
2022/09/11 08:52:26;;;;;;;4.63;0.60;;;;;;;36.13;26.51;100084.25;5107026;28;20382;-72
2022/09/11 08:54:55;;;;;;;4.95;0.70;;;;;;;35.29;28.27;100103.22;5106178;28;20038;-71
2022/09/11 08:57:30;;;;;;;3.92;0.47;;;;;;;35.36;28.47;100096.16;5090442;28;20015;-71
2022/09/11 09:00:08;;;;;;;0.98;0.50;;;;;;;36.01;27.07;100080.31;5100155;28;20634;-71
2022/09/11 09:02:40;;;;;;;1.67;0.60;;;;;;;36.29;27.30;100099.59;5106728;27;20467;-71
2022/09/11 09:05:13;;;;;;;0.90;0.43;;;;;;;36.39;27.02;100096.63;5091334;28;20672;-71
2022/09/11 09:07:51;;;;;;;2.97;0.60;;;;;;;36.07;26.23;100101.38;5105105;28;20809;-71
2022/09/11 09:10:46;;;;;;;1.95;0.47;;;;;;;36.48;26.02;100093.91;5107535;28;20039;-71
2022/09/11 09:13:23;;;;;;;1.98;0.40;;;;;;;36.63;25.93;100094.44;5082932;28;20100;-72
2022/09/11 09:15:56;;;;;;;4.32;0.95;;;;;;;36.84;25.43;100102.44;5107636;27;20066;-71
2022/09/11 09:18:36;;;;;;;1.25;0.50;;;;;;;36.44;25.93;100096.53;5094214;27;20036;-71
2022/09/11 09:21:10;;;;;;;0.93;0.40;;;;;;;36.12;26.17;100099.34;5089096;28;20103;-68
2022/09/11 09:23:41;;;;;;;1.30;0.40;;;;;;;36.29;26.08;100101.56;5101258;28;20050;-70
2022/09/11 09:26:17;;;;;;;0.90;0.40;;;;;;;35.49;26.90;100106.56;5099040;27;20142;-70
2022/09/11 09:28:49;;;;;;;0.80;0.30;;;;;;;34.15;28.55;100101.56;5104765;27;20417;-70
2022/09/11 09:31:19;;;;;;;1.33;0.60;;;;;;;34.15;28.80;100107.13;5110650;27;20028;-70
2022/09/11 09:34:21;;;;;;;1.80;0.40;;;;;;;33.46;29.94;100103.81;5100303;28;20023;-70
2022/09/11 09:36:57;;;;;;;3.70;0.50;;;;;;;33.50;29.53;100088.22;5087439;28;20027;-70
2022/09/11 09:39:23;;;;;;;0.60;0.32;;;;;;;33.35;30.48;100103.03;5097519;28;20028;-71
2022/09/11 09:42:15;;;;;;;0.55;0.32;;;;;;;33.04;30.92;100095.16;5100071;28;20063;-71
2022/09/11 09:44:45;;;;;;;2.00;0.50;;;;;;;32.60;31.85;100108.97;5083953;28;20693;-71
2022/09/11 09:47:12;;;;;;;3.28;0.50;;;;;;;33.20;30.49;100100.34;5105770;28;20031;-71
2022/09/11 09:49:38;;;;;;;2.28;0.40;;;;;;;32.79;30.46;100098.03;5100157;28;20515;-70
2022/09/11 09:52:32;;;;;;;2.85;0.40;;;;;;;32.00;31.79;100112.69;5104247;28;20080;-71
2022/09/11 09:55:00;;;;;;;1.38;0.50;;;;;;;31.43;31.97;100111.28;5095745;28;20547;-67
2022/09/11 09:57:31;;;;;;;1.73;0.38;;;;;;;30.21;34.12;100095.25;5101599;28;20525;-70
2022/09/11 10:00:10;;;;;;;1.48;0.30;;;;;;;30.41;34.25;100091.78;5105096;28;20469;-68
2022/09/11 10:02:44;;;;;;;2.08;0.40;;;;;;;29.51;35.77;100104.91;5102484;27;20064;-68
2022/09/11 10:05:25;;;;;;;5.30;0.77;;;;;;;29.25;35.31;100101.06;5089091;27;20024;-68
2022/09/11 10:08:00;;;;;;;2.00;0.40;;;;;;;28.77;36.32;100111.25;5106812;27;20060;-68
2022/09/11 10:10:37;;;;;;;1.25;0.50;;;;;;;28.87;36.23;100083.75;5099707;27;20183;-68
2022/09/11 10:13:17;;;;;;;4.05;0.60;;;;;;;28.84;36.81;100098.94;5099391;28;20110;-68
2022/09/11 10:15:42;;;;;;;1.35;0.40;;;;;;;28.24;37.91;100096.19;5103236;27;20035;-68
2022/09/11 10:18:22;;;;;;;0.50;0.30;;;;;;;27.46;39.13;100101.00;5095608;28;20471;-68
2022/09/11 10:20:48;;;;;;;1.90;0.57;;;;;;;27.04;40.03;100093.28;5117810;27;20047;-68
2022/09/11 10:23:25;;;;;;;1.25;0.57;;;;;;;27.12;39.46;100096.50;5085204;28;20506;-68
2022/09/11 10:25:51;;;;;;;0.45;0.30;;;;;;;26.55;40.17;100094.75;5098469;28;20043;-68
2022/09/11 10:28:25;;;;;;;1.10;0.47;;;;;;;26.25;41.35;100094.13;5115651;27;20115;-68
2022/09/11 10:30:52;;;;;;;2.22;0.40;;;;;;;26.17;41.38;100095.31;5089657;28;20196;-68
2022/09/11 10:33:27;;;;;;;0.77;0.50;;;;;;;26.19;41.75;100081.34;5085708;28;20039;-69
2022/09/11 10:35:54;;;;;;;1.85;0.20;;;;;;;26.27;41.45;100092.78;5084457;28;20059;-68
2022/09/11 10:38:26;;;;;;;0.93;0.43;;;;;;;26.18;41.65;100082.41;5085365;28;20039;-68
2022/09/11 10:40:56;;;;;;;1.70;0.47;;;;;;;25.93;41.87;100079.06;5085059;28;20119;-68
2022/09/11 10:43:25;;;;;;;1.55;0.30;;;;;;;25.68;43.05;100086.69;5085692;28;20032;-68
2022/09/11 10:46:04;;;;;;;3.05;0.65;;;;;;;25.65;42.73;100070.69;5093528;28;20109;-68
2022/09/11 10:48:30;;;;;;;1.98;0.60;;;;;;;25.62;42.98;100066.50;5102398;27;20046;-68
2022/09/11 10:51:13;;;;;;;2.47;0.40;;;;;;;25.53;42.82;100067.91;5087438;28;20040;-67
2022/09/11 10:54:06;;;;;;;3.03;0.70;;;;;;;25.49;43.31;100077.72;5125802;27;20118;-69
2022/09/11 10:56:39;;;;;;;1.35;0.63;;;;;;;25.29;43.21;100059.84;5111458;27;20053;-67
2022/09/11 10:59:16;;;;;;;1.47;0.50;;;;;;;24.98;43.86;100044.50;5101202;27;20039;-67
2022/09/11 11:01:42;;;;;;;4.50;0.80;;;;;;;25.08;44.00;100072.22;5105840;28;20027;-67
2022/09/11 11:04:11;;;;;;;3.22;0.40;;;;;;;25.11;44.13;100070.94;5113198;28;20115;-67
2022/09/11 11:07:13;;;;;;;1.13;0.40;;;;;;;25.17;43.66;100056.25;5089587;28;20059;-67
2022/09/11 11:09:46;;;;;;;1.35;0.40;;;;;;;25.15;43.56;100072.94;5091707;28;20323;-69
2022/09/11 11:12:18;;;;;;;0.65;0.38;;;;;;;25.00;44.03;100067.06;5095049;28;20032;-70
2022/09/11 11:15:11;;;;;;;3.05;0.50;;;;;;;24.84;44.77;100072.38;5085744;28;20039;-70
2022/09/11 11:17:49;;;;;;;3.35;0.55;;;;;;;24.72;45.49;100061.34;5099189;28;20056;-69
2022/09/11 11:21:09;;;;;;;0.93;0.63;;;;;;;24.65;45.16;100057.84;5085584;28;20075;-70
2022/09/11 11:23:50;;;;;;;3.22;0.60;;;;;;;24.57;45.17;100054.56;5024647;28;20040;-70
2022/09/11 11:26:43;;;;;;;2.05;0.50;;;;;;;24.51;45.29;100059.09;5084772;28;20046;-69
2022/09/11 11:29:27;;;;;;;1.75;0.32;;;;;;;24.48;45.58;100049.38;5093762;28;20510;-71
2022/09/11 11:32:11;;;;;;;0.43;0.40;;;;;;;24.45;45.96;100062.75;5095985;28;20051;-70
2022/09/11 11:35:00;;;;;;;2.28;0.80;;;;;;;24.35;46.13;100041.34;5101969;28;20047;-70
2022/09/11 11:37:44;;;;;;;1.20;0.55;;;;;;;24.40;46.37;100052.47;5101295;28;20032;-68
2022/09/11 11:40:20;;;;;;;1.17;0.98;;;;;;;24.39;45.69;100053.53;5103953;27;20607;-68